Center Ossipee, NH (03814)

1:45 PM EST on December 09, 2016 (GMT -0500)
| | Change Station

Elev -9999 ft 0.00 °N, 0.00 °E | Updated 5 seconds ago

Mostly Cloudy
Mostly Cloudy
65 °F
Feels Like 65 °F
N
6
Wind Variable Wind from SE
Gusts mph

Today
High -- | Low -- °F
--% Chance of Precip.
Yesterday
High -- | Low -- °F
Precip. -- in
Pressure 29.99 in
Visibility 10.0 miles
Clouds Overcast 4700 ft
Dew Point 50 °F
Humidity 60%
Rainfall --
Snow Depth Not available.
7:07 AM 4:07 PM
Waxing Gibbous, 76% visible
METAR KLCI 091756Z AUTO 28013G23KT 250V310 10SM OVC047 M03/M12 A2993 RMK AO2 SNB12E22 SLP155 P0000 60000 T10281117 11017 21033 51006 FZRANO
Pressure 29.99 in
Visibility 10.0 miles
Clouds Overcast 4700 ft
Dew Point 50 °F
Humidity 60%
Rainfall --
Snow Depth Not available.
7:07 AM 4:07 PM
Waxing Gibbous, 76% visible
METAR KLCI 091756Z AUTO 28013G23KT 250V310 10SM OVC047 M03/M12 A2993 RMK AO2 SNB12E22 SLP155 P0000 60000 T10281117 11017 21033 51006 FZRANO

10-Day Weather Forecast

Almanac

Astronomy

Dec. 09, 2016 Rise Set
Actual Time
Civil Twilight
Nautical Twilight
Astronomical Twilight
Moon
Length of Visible Light
Length of Day
Tomorrow will be .
, % of the Moon is Illuminated

Today's Extremes

State Highs State Lows

Community

WunderPhotos

Upload Photos

1,956,499 photos uploaded!

WunderBlog® & News

Nearby

Air Quality

  Air Quality AQ Index Pollutant
Not available.

Snow Depth

Station Depth Elevation

Earthquake Activity

City Distance Mag. Time & Date
Minimum magnitude displayed is 2.5.

Coastal Water Temperatures

Place Temperature

Stations

Nearby Weather Stations

Station Location Temp. Windchill Dew Point Humidity Wind Precip. Elev Updated Type
                   

Watches & Warnings

There are currently no watches in effect.